createdAt,value
2018-11-28T00:00:10.675Z,14.23
2018-11-28T00:02:39.152Z,13.20
2018-11-28T00:05:10.895Z,13.70
2018-11-28T00:07:39.349Z,14.13
2018-11-28T00:10:12.780Z,14.23
2018-11-28T00:12:41.381Z,14.80
2018-11-28T00:15:12.000Z,14.17
2018-11-28T00:17:40.476Z,14.67
2018-11-28T00:20:13.239Z,13.63
2018-11-28T00:22:41.928Z,12.57
2018-11-28T00:25:11.281Z,16.13
2018-11-28T00:27:39.714Z,13.97
2018-11-28T00:30:11.150Z,11.53
2018-11-28T00:32:39.806Z,11.57
2018-11-28T00:35:10.627Z,14.20
2018-11-28T00:37:39.112Z,12.03
2018-11-28T00:40:09.355Z,11.87
2018-11-28T00:42:38.310Z,14.67
2018-11-28T00:45:10.552Z,13.03
2018-11-28T00:47:39.193Z,15.10
2018-11-28T00:50:12.525Z,14.33
2018-11-28T00:52:40.818Z,12.10
2018-11-28T00:55:12.168Z,12.03
2018-11-28T00:57:40.608Z,14.67
2018-11-28T01:00:11.363Z,13.30
2018-11-28T01:02:39.706Z,14.43
2018-11-28T01:05:09.567Z,18.30
2018-11-28T01:07:38.020Z,14.50
2018-11-28T01:10:09.702Z,15.20
2018-11-28T01:12:38.067Z,13.97
2018-11-28T01:15:08.364Z,15.70
2018-11-28T01:17:36.746Z,15.57
2018-11-28T01:20:06.808Z,14.70
2018-11-28T01:22:35.253Z,16.87
2018-11-28T01:25:03.695Z,16.40
2018-11-28T01:27:32.366Z,15.47
2018-11-28T01:30:00.727Z,15.33
2018-11-28T01:32:29.139Z,12.50
2018-11-28T01:34:57.453Z,14.30
2018-11-28T01:37:25.833Z,16.07
2018-11-28T01:39:54.254Z,15.33
2018-11-28T01:42:22.598Z,12.63
2018-11-28T01:44:50.895Z,14.03
2018-11-28T01:47:19.367Z,15.37
2018-11-28T01:49:47.900Z,13.90
2018-11-28T01:52:16.894Z,13.40
2018-11-28T01:54:45.276Z,12.97
2018-11-28T01:57:13.694Z,13.73
2018-11-28T01:59:42.009Z,14.83
2018-11-28T02:02:10.722Z,12.70
2018-11-28T02:04:39.101Z,14.10
2018-11-28T02:07:07.554Z,14.23
2018-11-28T02:09:35.957Z,12.60
2018-11-28T02:12:04.624Z,13.60
2018-11-28T02:14:32.979Z,12.60
2018-11-28T02:17:01.337Z,11.43
2018-11-28T02:19:29.723Z,13.23
2018-11-28T02:21:58.073Z,14.30
2018-11-28T02:24:26.413Z,13.43
2018-11-28T02:26:54.812Z,13.57
2018-11-28T02:29:24.329Z,12.60
2018-11-28T02:31:51.612Z,12.73
2018-11-28T02:34:19.950Z,10.50
2018-11-28T02:36:48.304Z,14.53
2018-11-28T02:39:16.641Z,15.57
2018-11-28T02:41:45.003Z,14.47
2018-11-28T02:44:13.350Z,13.37
2018-11-28T02:46:41.712Z,13.87
2018-11-28T02:49:10.053Z,13.10
2018-11-28T02:51:38.403Z,14.93
2018-11-28T02:54:07.182Z,16.87
2018-11-28T02:56:35.738Z,13.73
2018-11-28T02:59:04.201Z,13.97
2018-11-28T03:01:32.564Z,15.33
2018-11-28T03:04:01.032Z,13.77
2018-11-28T03:06:29.364Z,15.83
2018-11-28T03:08:57.705Z,12.17
2018-11-28T03:11:26.036Z,12.97
2018-11-28T03:13:54.391Z,13.60
2018-11-28T03:16:22.759Z,14.97
2018-11-28T03:18:51.174Z,13.10
2018-11-28T03:21:19.446Z,12.73
2018-11-28T03:23:47.825Z,11.77
2018-11-28T03:26:16.273Z,12.00
2018-11-28T03:28:44.719Z,9.53
2018-11-28T03:31:13.065Z,11.77
2018-11-28T03:33:41.434Z,10.97
2018-11-28T03:36:09.769Z,10.33
2018-11-28T03:38:38.133Z,10.30
2018-11-28T03:41:06.479Z,12.83
2018-11-28T03:43:34.920Z,13.77
2018-11-28T03:46:04.405Z,13.90
2018-11-28T03:48:32.826Z,11.53
2018-11-28T03:51:01.169Z,12.63
2018-11-28T03:53:29.574Z,10.10
2018-11-28T03:55:57.920Z,11.47
2018-11-28T03:58:26.281Z,9.27
2018-11-28T04:00:54.755Z,13.17
2018-11-28T04:03:23.662Z,11.37
2018-11-28T04:05:52.076Z,10.27
2018-11-28T04:08:20.460Z,11.40
2018-11-28T04:10:48.920Z,12.67
2018-11-28T04:13:17.245Z,11.00
2018-11-28T04:15:45.593Z,11.57
2018-11-28T04:18:14.985Z,10.67
2018-11-28T04:20:43.325Z,10.00
2018-11-28T04:23:11.833Z,10.37
2018-11-28T04:25:40.179Z,8.37
2018-11-28T04:28:08.567Z,11.73
2018-11-28T04:30:36.862Z,9.70
2018-11-28T04:33:05.379Z,11.30
2018-11-28T04:35:33.730Z,10.60
2018-11-28T04:38:03.276Z,10.07
2018-11-28T04:40:31.638Z,10.27
2018-11-28T04:42:59.956Z,10.53
2018-11-28T04:45:28.333Z,11.27
2018-11-28T04:47:56.728Z,12.47
2018-11-28T04:50:25.031Z,11.13
2018-11-28T04:52:54.648Z,10.87
2018-11-28T04:55:22.996Z,8.73
2018-11-28T04:57:51.289Z,11.03
2018-11-28T05:00:24.670Z,10.93
2018-11-28T05:02:54.190Z,9.13
2018-11-28T05:05:22.506Z,9.83
2018-11-28T05:07:52.912Z,10.47
2018-11-28T05:10:24.041Z,8.87
2018-11-28T05:12:53.075Z,11.80
2018-11-28T05:15:22.356Z,10.37
2018-11-28T05:17:51.481Z,10.93
2018-11-28T05:20:20.998Z,10.27
2018-11-28T05:22:49.658Z,8.73
2018-11-28T05:25:21.279Z,8.80
2018-11-28T05:27:50.660Z,9.70
2018-11-28T05:30:20.762Z,10.67
2018-11-28T05:32:49.239Z,10.40
2018-11-28T05:35:18.744Z,10.37
2018-11-28T05:37:47.225Z,9.67
2018-11-28T05:40:20.455Z,10.40
2018-11-28T05:42:48.841Z,9.53
2018-11-28T05:45:17.335Z,11.53
2018-11-28T05:47:45.990Z,10.70
2018-11-28T05:50:18.794Z,10.63
2018-11-28T05:52:47.151Z,10.37
2018-11-28T05:55:16.309Z,10.40
2018-11-28T05:57:44.868Z,10.33
2018-11-28T06:00:19.577Z,12.10
2018-11-28T06:02:55.617Z,11.53
2018-11-28T06:05:24.063Z,11.47
2018-11-28T06:07:52.435Z,13.13
2018-11-28T06:10:21.054Z,13.50
2018-11-28T06:12:49.623Z,14.13
2018-11-28T06:15:17.969Z,14.80
2018-11-28T06:17:46.488Z,15.27
2018-11-28T06:20:15.431Z,17.77
2018-11-28T06:22:43.814Z,17.23
2018-11-28T06:25:16.178Z,19.70
2018-11-28T06:27:42.524Z,20.10
2018-11-28T06:30:16.954Z,20.53
2018-11-28T06:32:51.007Z,20.40
2018-11-28T06:35:14.192Z,22.60
2018-11-28T06:37:42.697Z,26.23
2018-11-28T06:40:15.058Z,30.73
2018-11-28T06:42:44.216Z,25.97
2018-11-28T06:45:15.781Z,26.17
2018-11-28T06:47:44.134Z,25.17
2018-11-28T06:50:14.452Z,30.73
2018-11-28T06:52:43.670Z,27.43
2018-11-28T06:55:13.242Z,25.20
2018-11-28T06:57:41.634Z,28.37
2018-11-28T07:00:18.121Z,25.17
2018-11-28T07:02:47.141Z,22.00
2018-11-28T07:05:15.576Z,24.67
2018-11-28T07:07:44.005Z,20.27
2018-11-28T07:10:13.697Z,23.33
2018-11-28T07:12:42.902Z,22.97
2018-11-28T07:15:13.302Z,22.67
2018-11-28T07:17:42.048Z,23.43
2018-11-28T07:20:14.353Z,23.30
2018-11-28T07:22:42.816Z,21.73
2018-11-28T07:25:14.056Z,23.27
2018-11-28T07:27:45.024Z,20.07
2018-11-28T07:30:17.261Z,20.77
2018-11-28T07:32:45.849Z,25.73
2018-11-28T07:35:15.337Z,23.00
2018-11-28T07:37:44.174Z,24.93
2018-11-28T07:40:18.408Z,22.93
2018-11-28T07:43:02.409Z,23.77
2018-11-28T07:45:32.799Z,16.97
2018-11-28T07:48:01.270Z,24.40
2018-11-28T07:50:29.574Z,23.17
2018-11-28T07:52:58.401Z,25.53
2018-11-28T07:55:27.314Z,24.50
2018-11-28T07:57:56.257Z,23.40
2018-11-28T08:00:24.870Z,24.27
2018-11-28T08:02:53.371Z,22.37
2018-11-28T08:05:22.061Z,22.73
2018-11-28T08:07:50.401Z,23.47
2018-11-28T08:10:21.880Z,22.13
2018-11-28T08:12:51.435Z,19.13
2018-11-28T08:15:19.837Z,20.30
2018-11-28T08:17:48.453Z,21.23
2018-11-28T08:20:17.362Z,20.97
2018-11-28T08:22:45.800Z,18.00
2018-11-28T08:25:17.356Z,19.60
2018-11-28T08:27:47.329Z,21.73
2018-11-28T08:30:20.101Z,23.33
2018-11-28T08:32:48.583Z,20.00
2018-11-28T08:35:17.356Z,21.03
2018-11-28T08:37:45.868Z,20.83
2018-11-28T08:40:19.811Z,19.17
2018-11-28T08:42:48.414Z,24.90
2018-11-28T08:45:18.464Z,25.10
2018-11-28T08:47:48.573Z,22.67
2018-11-28T08:50:18.523Z,22.47
2018-11-28T08:52:50.391Z,22.53
2018-11-28T08:55:19.068Z,24.43
2018-11-28T08:57:48.616Z,23.27
2018-11-28T09:00:21.088Z,21.63
2018-11-28T09:02:56.541Z,25.17
2018-11-28T09:05:25.181Z,24.10
2018-11-28T09:07:53.700Z,25.30
2018-11-28T09:10:22.311Z,23.40
2018-11-28T09:12:51.210Z,23.87
2018-11-28T09:15:26.918Z,22.07
2018-11-28T09:17:55.760Z,25.20
2018-11-28T09:20:25.133Z,28.00
2018-11-28T09:22:56.173Z,26.60
2018-11-28T09:28:08.939Z,26.47
2018-11-28T09:30:37.563Z,27.47
2018-11-28T09:33:06.488Z,25.83
2018-11-28T09:35:34.871Z,30.47
2018-11-28T09:38:10.297Z,29.77
2018-11-28T09:40:38.654Z,28.70
2018-11-28T09:43:07.162Z,24.50
2018-11-28T09:45:36.776Z,24.63
2018-11-28T09:48:05.360Z,30.57
2018-11-28T09:50:35.754Z,30.77
2018-11-28T09:53:04.201Z,32.07
2018-11-28T09:55:33.889Z,29.83
2018-11-28T09:58:03.055Z,25.77
2018-11-28T10:00:32.774Z,28.47
2018-11-28T10:03:02.169Z,29.00
2018-11-28T10:05:35.036Z,26.07
2018-11-28T10:08:03.916Z,24.03
2018-11-28T10:10:32.883Z,26.70
2018-11-28T10:13:01.300Z,23.10
2018-11-28T10:15:35.278Z,25.37
2018-11-28T10:18:00.994Z,29.80
2018-11-28T10:20:29.501Z,25.57
2018-11-28T10:22:58.832Z,28.57
2018-11-28T10:25:27.470Z,27.70
2018-11-28T10:28:05.400Z,27.83
2018-11-28T10:30:36.281Z,27.20
2018-11-28T10:33:15.193Z,25.67
2018-11-28T10:35:43.865Z,25.90
2018-11-28T10:38:13.890Z,24.63
2018-11-28T10:40:42.855Z,28.53
2018-11-28T10:43:11.698Z,26.03
2018-11-28T10:45:40.931Z,25.67
2018-11-28T10:48:15.397Z,28.10
2018-11-28T10:50:45.342Z,29.57
2018-11-28T10:53:15.641Z,27.93
2018-11-28T10:55:45.438Z,29.27
2018-11-28T10:58:14.495Z,26.27
2018-11-28T11:00:48.714Z,25.20
2018-11-28T11:03:23.341Z,27.43
2018-11-28T11:05:58.313Z,25.57
2018-11-28T11:08:28.716Z,23.30
2018-11-28T11:11:03.853Z,31.80
2018-11-28T11:13:38.114Z,26.77
2018-11-28T11:16:07.969Z,27.83
2018-11-28T11:18:38.919Z,25.03
2018-11-28T11:21:08.126Z,27.97
2018-11-28T11:23:37.579Z,26.67
2018-11-28T11:26:06.499Z,25.20
2018-11-28T11:28:39.432Z,24.83
2018-11-28T11:31:09.045Z,27.50
2018-11-28T11:33:38.377Z,24.70
2018-11-28T11:36:09.123Z,28.87
2018-11-28T11:38:38.680Z,25.27
2018-11-28T11:41:07.402Z,24.80
2018-11-28T11:43:36.239Z,27.93
2018-11-28T11:46:05.720Z,29.00
2018-11-28T11:54:28.066Z,26.67
2018-11-28T11:56:58.898Z,27.40
2018-11-28T11:59:27.894Z,27.67
2018-11-28T12:01:57.072Z,28.43
2018-11-28T12:04:25.408Z,27.17
2018-11-28T12:06:54.963Z,27.17
2018-11-28T12:09:24.149Z,29.53
2018-11-28T12:11:53.542Z,29.97
2018-11-28T12:14:22.013Z,28.53
2018-11-28T12:16:50.539Z,30.57
2018-11-28T12:19:20.188Z,28.73
2018-11-28T12:21:48.590Z,28.70
2018-11-28T12:24:17.171Z,31.20
2018-11-28T12:26:45.818Z,33.60
2018-11-28T12:29:15.402Z,30.13
2018-11-28T12:31:45.856Z,34.50
2018-11-28T12:34:14.857Z,30.23
2018-11-28T12:36:44.319Z,32.20
2018-11-28T12:39:14.140Z,31.43
2018-11-28T12:41:43.087Z,33.07
2018-11-28T12:44:12.621Z,30.43
2018-11-28T12:46:41.818Z,30.23
2018-11-28T12:49:11.134Z,32.17
2018-11-28T12:51:40.399Z,33.37
2018-11-28T12:54:09.512Z,28.80
2018-11-28T12:56:38.860Z,28.17
2018-11-28T12:59:07.983Z,32.07
2018-11-28T13:01:37.157Z,28.50
2018-11-28T13:04:06.975Z,30.97
2018-11-28T13:09:17.966Z,28.37
2018-11-28T13:11:46.293Z,24.67
2018-11-28T13:14:14.857Z,32.03
2018-11-28T13:16:44.687Z,27.83
2018-11-28T13:19:13.895Z,31.30
2018-11-28T13:21:43.094Z,31.60
2018-11-28T13:24:12.394Z,32.27
2018-11-28T13:26:41.433Z,31.93
2018-11-28T13:29:12.053Z,33.90
2018-11-28T13:31:43.417Z,35.30
2018-11-28T13:34:12.739Z,32.00
2018-11-28T13:36:41.942Z,31.17
2018-11-28T13:39:11.290Z,31.60
2018-11-28T13:41:39.650Z,29.47
2018-11-28T13:44:08.007Z,26.50
2018-11-28T13:46:36.365Z,37.50
2018-11-28T13:49:04.987Z,33.63
2018-11-28T13:51:33.570Z,32.30
2018-11-28T13:54:20.547Z,30.60
2018-11-28T13:56:58.289Z,30.30
2018-11-28T13:58:59.889Z,33.87
2018-11-28T14:01:28.422Z,27.53
2018-11-28T14:03:56.754Z,37.37
2018-11-28T14:06:25.195Z,34.40
2018-11-28T14:08:55.309Z,35.20
2018-11-28T14:11:23.644Z,29.77
2018-11-28T14:13:52.113Z,36.33
2018-11-28T14:16:21.395Z,35.23
2018-11-28T14:18:49.889Z,36.03
2018-11-28T14:21:18.464Z,36.03
2018-11-28T14:23:46.935Z,38.57
2018-11-28T14:26:15.388Z,33.10
2018-11-28T14:28:43.958Z,32.17
2018-11-28T14:31:12.425Z,33.33
2018-11-28T14:33:41.047Z,32.70
2018-11-28T14:36:09.427Z,32.17
2018-11-28T14:38:38.309Z,31.90
2018-11-28T14:41:06.947Z,30.90
2018-11-28T14:43:36.446Z,32.10
2018-11-28T14:46:04.945Z,32.73
2018-11-28T14:48:33.321Z,36.57
2018-11-28T14:51:01.819Z,33.17
2018-11-28T14:53:30.363Z,34.90
2018-11-28T14:55:59.022Z,37.17
2018-11-28T14:58:27.660Z,31.57
2018-11-28T15:00:55.881Z,36.67
2018-11-28T15:03:24.689Z,31.03
2018-11-28T15:06:02.836Z,30.00
2018-11-28T15:08:31.880Z,33.13
2018-11-28T15:11:09.000Z,33.67
2018-11-28T15:13:37.817Z,33.73
2018-11-28T15:16:06.715Z,34.17
2018-11-28T15:18:35.185Z,27.73
2018-11-28T15:21:03.596Z,32.07
2018-11-28T15:23:32.090Z,33.27
2018-11-28T15:26:00.780Z,29.57
2018-11-28T15:28:29.156Z,33.70
2018-11-28T15:30:57.688Z,27.73
2018-11-28T15:33:26.027Z,34.17
2018-11-28T15:35:54.397Z,30.93
2018-11-28T15:38:23.157Z,32.00
2018-11-28T15:40:52.594Z,29.23
2018-11-28T15:43:21.126Z,33.20
2018-11-28T15:45:50.387Z,30.57
2018-11-28T15:48:18.845Z,33.00
2018-11-28T15:50:47.312Z,29.33
2018-11-28T15:53:15.673Z,30.87
2018-11-28T15:55:44.216Z,33.43
2018-11-28T15:58:12.599Z,29.93
2018-11-28T16:00:40.921Z,25.60
2018-11-28T16:03:09.337Z,31.83
2018-11-28T16:05:39.626Z,32.87
2018-11-28T16:08:07.989Z,29.53
2018-11-28T16:10:43.346Z,31.67
2018-11-28T16:13:15.040Z,30.07
2018-11-28T16:15:54.402Z,27.23
2018-11-28T16:18:23.160Z,27.87
2018-11-28T16:20:51.656Z,29.07
2018-11-28T16:23:19.985Z,23.43
2018-11-28T16:25:48.326Z,22.70
2018-11-28T16:28:16.834Z,31.47
2018-11-28T16:30:45.293Z,29.47
2018-11-28T16:33:13.658Z,36.70
2018-11-28T16:35:42.048Z,31.80
2018-11-28T16:38:10.366Z,24.43
2018-11-28T16:40:38.612Z,25.27
2018-11-28T16:43:06.853Z,28.40
2018-11-28T16:45:35.284Z,28.57
2018-11-28T16:48:03.750Z,28.20
2018-11-28T16:50:32.253Z,27.63
2018-11-28T16:53:00.643Z,27.20
2018-11-28T16:55:29.314Z,33.77
2018-11-28T16:57:58.000Z,28.40
2018-11-28T17:00:28.910Z,33.23
2018-11-28T17:02:57.633Z,30.23
2018-11-28T17:05:27.357Z,34.90
2018-11-28T17:07:55.937Z,32.30
2018-11-28T17:10:26.325Z,31.67
2018-11-28T17:12:55.239Z,31.40
2018-11-28T17:15:23.621Z,27.97
2018-11-28T17:17:52.031Z,27.60
2018-11-28T17:20:21.375Z,30.90
2018-11-28T17:22:50.753Z,28.53
2018-11-28T17:25:21.454Z,29.80
2018-11-28T17:27:49.759Z,29.30
2018-11-28T17:30:22.436Z,29.17
2018-11-28T17:32:50.918Z,30.40
2018-11-28T17:35:19.750Z,31.43
2018-11-28T17:37:48.679Z,27.87
2018-11-28T17:40:20.346Z,28.60
2018-11-28T17:42:50.937Z,32.50
2018-11-28T17:45:19.520Z,27.07
2018-11-28T17:47:48.458Z,28.67
2018-11-28T17:50:19.849Z,28.90
2018-11-28T17:52:51.164Z,33.57
2018-11-28T17:55:19.570Z,36.27
2018-11-28T18:00:22.817Z,31.30
2018-11-28T18:02:51.303Z,30.63
2018-11-28T18:05:19.671Z,34.37
2018-11-28T18:07:48.126Z,27.67
2018-11-28T18:10:17.680Z,30.87
2018-11-28T18:12:57.321Z,30.07
2018-11-28T18:15:25.642Z,30.90
2018-11-28T18:17:55.634Z,31.27
2018-11-28T18:20:23.954Z,36.20
2018-11-28T18:22:52.424Z,32.53
2018-11-28T18:25:21.187Z,28.10
2018-11-28T18:27:49.967Z,33.73
2018-11-28T18:30:17.993Z,31.07
2018-11-28T18:32:46.452Z,29.33
2018-11-28T18:35:14.733Z,30.33
2018-11-28T18:37:43.044Z,36.97
2018-11-28T18:40:12.794Z,31.83
2018-11-28T18:42:42.685Z,30.70
2018-11-28T18:45:18.472Z,31.03
2018-11-28T18:47:46.508Z,32.83
2018-11-28T18:50:15.050Z,31.97
2018-11-28T18:52:43.426Z,32.00
2018-11-28T18:55:16.723Z,30.80
2018-11-28T18:57:43.317Z,31.63
2018-11-28T19:00:17.854Z,36.90
2018-11-28T19:02:46.117Z,35.50
2018-11-28T19:05:14.601Z,34.20
2018-11-28T19:07:43.016Z,35.77
2018-11-28T19:10:13.535Z,33.57
2018-11-28T19:12:41.875Z,28.20
2018-11-28T19:15:13.433Z,30.80
2018-11-28T19:17:42.023Z,34.50
2018-11-28T19:20:11.713Z,31.53
2018-11-28T19:22:40.147Z,34.47
2018-11-28T19:25:14.429Z,30.40
2018-11-28T19:27:42.956Z,34.70
2018-11-28T19:30:12.570Z,32.37
2018-11-28T19:32:41.454Z,31.53
2018-11-28T19:35:10.760Z,32.97
2018-11-28T19:37:40.181Z,34.00
2018-11-28T19:40:11.339Z,33.27
2018-11-28T19:42:40.359Z,32.70
2018-11-28T19:45:10.027Z,35.77
2018-11-28T19:47:38.506Z,33.13
2018-11-28T19:50:18.347Z,32.67
2018-11-28T19:52:47.062Z,34.87
2018-11-28T19:55:16.009Z,33.33
2018-11-28T19:57:45.122Z,31.17
2018-11-28T20:00:15.562Z,38.63
2018-11-28T20:02:44.588Z,36.27
2018-11-28T20:05:13.466Z,35.00
2018-11-28T20:07:45.536Z,34.20
2018-11-28T20:10:16.288Z,34.97
2018-11-28T20:12:44.757Z,31.03
2018-11-28T20:15:18.989Z,35.73
2018-11-28T20:17:47.465Z,38.33
2018-11-28T20:20:16.799Z,37.40
2018-11-28T20:22:45.387Z,32.43
2018-11-28T20:25:16.397Z,37.70
2018-11-28T20:27:46.071Z,30.43
2018-11-28T20:30:16.146Z,38.90
2018-11-28T20:32:44.617Z,31.50
2018-11-28T20:35:13.103Z,32.03
2018-11-28T20:37:41.832Z,33.83
2018-11-28T20:40:12.799Z,33.47
2018-11-28T20:42:42.958Z,34.40
2018-11-28T20:45:12.755Z,30.80
2018-11-28T20:47:41.155Z,36.80
2018-11-28T20:50:13.274Z,38.67
2018-11-28T20:52:42.903Z,34.87
2018-11-28T20:55:11.384Z,29.60
2018-11-28T20:57:39.734Z,30.43
2018-11-28T21:00:14.056Z,32.00
2018-11-28T21:02:42.526Z,31.83
2018-11-28T21:05:11.013Z,28.87
2018-11-28T21:07:39.987Z,33.87
2018-11-28T21:10:17.308Z,29.83
2018-11-28T21:12:45.694Z,28.27
2018-11-28T21:15:15.034Z,35.60
2018-11-28T21:17:45.378Z,30.53
2018-11-28T21:20:15.853Z,33.67
2018-11-28T21:22:45.661Z,35.90
2018-11-28T21:25:13.974Z,33.90
2018-11-28T21:27:42.930Z,26.43
2018-11-28T21:30:14.685Z,31.27
2018-11-28T21:32:43.751Z,26.87
2018-11-28T21:35:14.502Z,36.70
2018-11-28T21:37:42.873Z,28.20
2018-11-28T21:40:11.599Z,32.33
2018-11-28T21:42:39.901Z,31.93
2018-11-28T21:45:12.836Z,33.17
2018-11-28T21:47:41.705Z,31.60
2018-11-28T21:50:13.993Z,33.23
2018-11-28T21:52:42.950Z,31.10
2018-11-28T21:55:12.439Z,29.87
2018-11-28T21:57:40.938Z,34.57
2018-11-28T22:00:16.687Z,32.60
2018-11-28T22:02:44.933Z,31.40
2018-11-28T22:05:14.213Z,33.13
2018-11-28T22:07:42.624Z,31.83
2018-11-28T22:10:14.865Z,31.43
2018-11-28T22:12:43.191Z,30.70
2018-11-28T22:15:14.311Z,32.90
2018-11-28T22:17:43.887Z,36.97
2018-11-28T22:20:13.612Z,28.93
2018-11-28T22:22:41.982Z,33.70
2018-11-28T22:25:19.112Z,32.43
2018-11-28T22:27:47.581Z,30.60
2018-11-28T22:30:20.131Z,33.00
2018-11-28T22:32:48.549Z,31.90
2018-11-28T22:35:17.457Z,29.40
2018-11-28T22:37:45.834Z,33.77
2018-11-28T22:40:31.041Z,35.97
2018-11-28T22:42:59.354Z,29.20
2018-11-28T22:45:32.577Z,33.53
2018-11-28T22:48:02.716Z,29.13
2018-11-28T22:50:31.987Z,39.67
2018-11-28T22:53:00.492Z,38.60
2018-11-28T22:55:29.275Z,27.60
2018-11-28T22:57:57.637Z,28.70
2018-11-28T23:00:31.697Z,34.07
2018-11-28T23:03:02.470Z,32.87
2018-11-28T23:05:35.012Z,29.83
2018-11-28T23:08:04.537Z,34.27
2018-11-28T23:10:32.868Z,30.47
2018-11-28T23:13:01.156Z,27.50
2018-11-28T23:15:30.073Z,33.87
2018-11-28T23:17:59.149Z,33.13
2018-11-28T23:20:27.435Z,29.17
2018-11-28T23:22:55.918Z,30.30
2018-11-28T23:25:24.419Z,31.27
2018-11-28T23:27:53.240Z,30.77
2018-11-28T23:30:22.300Z,28.80
2018-11-28T23:32:52.430Z,34.37
2018-11-28T23:35:20.773Z,29.63
2018-11-28T23:37:49.530Z,25.37
2018-11-28T23:40:23.734Z,32.67
2018-11-28T23:42:52.604Z,30.50
2018-11-28T23:45:21.188Z,37.43
2018-11-28T23:47:49.728Z,32.17
2018-11-28T23:50:18.688Z,32.57
2018-11-28T23:52:47.788Z,29.60
2018-11-28T23:55:18.108Z,33.60
2018-11-28T23:57:46.514Z,33.70
